createdAt,value
2022-08-05T00:00:46.399Z,54.65
2022-08-05T00:03:16.421Z,54.06
2022-08-05T00:06:04.801Z,54.90
2022-08-05T00:08:35.531Z,55.21
2022-08-05T00:11:30.328Z,54.96
2022-08-05T00:13:56.161Z,54.16
2022-08-05T00:16:35.282Z,53.25
2022-08-05T00:19:05.162Z,52.45
2022-08-05T00:21:35.763Z,52.72
2022-08-05T00:24:09.991Z,52.04
2022-08-05T00:26:39.413Z,52.01
2022-08-05T00:29:18.563Z,52.37
2022-08-05T00:32:10.656Z,52.39
2022-08-05T00:34:56.865Z,52.96
2022-08-05T00:37:50.891Z,53.21
2022-08-05T00:40:26.767Z,52.77
2022-08-05T00:42:58.405Z,53.13
2022-08-05T00:45:38.294Z,52.92
2022-08-05T00:48:08.098Z,53.79
2022-08-05T00:50:37.880Z,53.39
2022-08-05T00:53:09.516Z,54.07
2022-08-05T00:55:55.459Z,54.29
2022-08-05T00:58:27.440Z,51.31
2022-08-05T01:00:56.360Z,49.18
2022-08-05T01:03:28.177Z,47.81
2022-08-05T01:06:01.341Z,46.58
2022-08-05T01:08:43.378Z,45.80
2022-08-05T01:11:22.567Z,46.10
2022-08-05T01:14:08.466Z,45.64
2022-08-05T01:16:44.362Z,46.68
2022-08-05T01:19:36.766Z,46.69
2022-08-05T01:22:27.766Z,47.13
2022-08-05T01:25:14.872Z,47.50
2022-08-05T01:28:16.683Z,47.74
2022-08-05T01:30:55.172Z,48.01
2022-08-05T01:33:29.481Z,48.16
2022-08-05T01:36:12.950Z,48.84
2022-08-05T01:38:48.494Z,48.68
2022-08-05T01:41:21.891Z,48.70
2022-08-05T01:43:53.378Z,49.42
2022-08-05T01:46:42.646Z,49.36
2022-08-05T01:49:23.605Z,49.23
2022-08-05T01:51:58.127Z,49.47
2022-08-05T01:54:32.756Z,49.80
2022-08-05T01:58:18.881Z,50.01
2022-08-05T01:59:53.707Z,50.63
2022-08-05T02:02:26.047Z,50.46
2022-08-05T02:04:59.411Z,50.99
2022-08-05T02:07:30.393Z,51.20
2022-08-05T02:09:58.868Z,51.83
2022-08-05T02:12:35.699Z,51.35
2022-08-05T02:15:12.392Z,51.30
2022-08-05T02:18:30.686Z,52.30
2022-08-05T02:20:47.158Z,52.80
2022-08-05T02:23:18.905Z,52.96
2022-08-05T02:25:50.099Z,53.27
2022-08-05T02:28:28.807Z,54.12
2022-08-05T02:31:04.112Z,54.03
2022-08-05T02:33:38.839Z,54.64
2022-08-05T02:36:13.731Z,55.48
2022-08-05T02:38:53.303Z,54.57
2022-08-05T02:41:28.457Z,54.77
2022-08-05T02:44:12.204Z,55.56
2022-08-05T02:46:58.312Z,55.34
2022-08-05T02:49:36.354Z,55.58
2022-08-05T02:52:08.776Z,55.46
2022-08-05T02:54:42.313Z,56.06
2022-08-05T02:58:12.295Z,55.89
2022-08-05T03:00:10.419Z,55.66
2022-08-05T03:02:42.877Z,55.66
2022-08-05T03:05:14.707Z,55.54
2022-08-05T03:08:01.649Z,55.65
2022-08-05T03:10:34.050Z,55.26
2022-08-05T03:15:28.749Z,55.29
2022-08-05T03:17:59.501Z,55.53
2022-08-05T03:20:27.531Z,55.59
2022-08-05T03:22:57.533Z,55.26
2022-08-05T03:25:34.093Z,55.75
2022-08-05T03:28:18.690Z,56.15
2022-08-05T03:30:49.396Z,55.84
2022-08-05T03:33:19.276Z,55.81
2022-08-05T03:35:47.812Z,55.65
2022-08-05T03:38:16.169Z,55.73
2022-08-05T03:40:48.757Z,55.77
2022-08-05T03:44:08.019Z,56.57
2022-08-05T03:46:08.259Z,56.05
2022-08-05T03:48:37.718Z,56.52
2022-08-05T03:52:37.822Z,58.05
2022-08-05T03:55:50.984Z,57.20
2022-08-05T03:56:58.891Z,57.42
2022-08-05T03:59:46.762Z,57.42
2022-08-05T04:02:37.776Z,58.17
2022-08-05T04:05:10.343Z,57.99
2022-08-05T04:07:57.247Z,57.72
2022-08-05T04:10:30.820Z,57.78
2022-08-05T04:13:04.026Z,58.09
2022-08-05T04:15:36.162Z,58.60
2022-08-05T04:18:07.879Z,57.78
2022-08-05T04:20:41.387Z,57.76
2022-08-05T04:23:12.645Z,70.36
2022-08-05T04:25:57.287Z,73.97
2022-08-05T04:28:31.726Z,65.75
2022-08-05T04:31:00.785Z,65.36
2022-08-05T04:34:18.751Z,62.61
2022-08-05T04:36:45.619Z,62.59
2022-08-05T04:39:08.585Z,63.53
2022-08-05T04:41:37.907Z,62.01
2022-08-05T04:44:08.889Z,61.56
2022-08-05T04:46:40.410Z,61.89
2022-08-05T04:49:12.226Z,63.24
2022-08-05T04:51:44.478Z,61.77
2022-08-05T04:54:12.426Z,62.31
2022-08-05T04:56:40.548Z,62.52
2022-08-05T04:59:21.944Z,62.12
2022-08-05T05:02:07.035Z,62.30
2022-08-05T05:04:43.765Z,62.14
2022-08-05T05:07:15.962Z,61.28
2022-08-05T05:09:45.240Z,62.10
2022-08-05T05:12:13.124Z,61.86
2022-08-05T05:14:49.425Z,60.84
2022-08-05T05:17:23.770Z,62.46
2022-08-05T05:19:56.612Z,61.99
2022-08-05T05:22:26.883Z,62.31
2022-08-05T05:24:57.083Z,61.32
2022-08-05T05:27:41.385Z,62.38
2022-08-05T05:30:31.143Z,62.19
2022-08-05T05:33:09.207Z,62.26
2022-08-05T05:35:45.184Z,62.48
2022-08-05T05:38:15.015Z,62.36
2022-08-05T05:40:51.942Z,62.28
2022-08-05T05:43:27.630Z,62.15
2022-08-05T05:46:16.156Z,62.00
2022-08-05T05:48:48.862Z,62.80
2022-08-05T05:51:21.549Z,62.88
2022-08-05T05:53:58.343Z,61.80
2022-08-05T05:56:33.161Z,62.93
2022-08-05T05:59:05.741Z,62.11
2022-08-05T06:01:37.617Z,62.13
2022-08-05T06:04:11.460Z,61.12
2022-08-05T06:06:41.601Z,61.08
2022-08-05T06:09:17.300Z,60.61
2022-08-05T06:12:01.320Z,60.48
2022-08-05T06:14:30.637Z,60.22
2022-08-05T06:16:59.382Z,60.73
2022-08-05T06:19:34.811Z,59.88
2022-08-05T06:22:04.060Z,59.19
2022-08-05T06:24:34.032Z,58.86
2022-08-05T06:27:03.998Z,59.37
2022-08-05T06:29:46.909Z,60.92
2022-08-05T06:32:25.917Z,60.10
2022-08-05T06:34:58.235Z,58.72
2022-08-05T06:37:56.656Z,59.04
2022-08-05T06:40:18.267Z,57.67
2022-08-05T06:42:51.955Z,56.14
2022-08-05T06:46:03.099Z,55.42
2022-08-05T06:48:37.078Z,56.29
2022-08-05T06:50:58.269Z,55.19
2022-08-05T06:53:29.154Z,54.61
2022-08-05T06:55:59.828Z,53.46
2022-08-05T06:58:36.559Z,53.66
2022-08-05T07:01:06.454Z,54.56
2022-08-05T07:03:35.583Z,56.36
2022-08-05T07:06:06.169Z,55.57
2022-08-05T07:08:47.334Z,55.68
2022-08-05T07:11:22.339Z,54.51
2022-08-05T07:14:15.510Z,53.79
2022-08-05T07:18:08.589Z,53.77
2022-08-05T07:22:29.778Z,54.27
2022-08-05T07:25:22.024Z,54.68
2022-08-05T07:27:58.502Z,54.02
2022-08-05T07:30:33.796Z,54.66
2022-08-05T07:33:08.799Z,52.73
2022-08-05T07:36:02.192Z,52.45
2022-08-05T07:38:34.439Z,51.92
2022-08-05T07:42:06.764Z,50.77
2022-08-05T07:43:56.316Z,49.74
2022-08-05T07:46:26.483Z,48.71
2022-08-05T07:49:02.592Z,47.85
2022-08-05T07:51:40.896Z,47.22
2022-08-05T07:54:18.585Z,47.39
2022-08-05T07:57:01.197Z,46.99
2022-08-05T07:59:40.527Z,47.74
2022-08-05T08:02:17.024Z,45.75
2022-08-05T08:04:48.710Z,45.19
2022-08-05T08:07:18.086Z,43.24
2022-08-05T08:09:52.467Z,44.06
2022-08-05T08:12:37.082Z,42.45
2022-08-05T08:15:15.438Z,41.21
2022-08-05T08:17:49.854Z,41.73
2022-08-05T08:20:44.221Z,42.16
2022-08-05T08:24:01.044Z,40.95
2022-08-05T08:26:02.817Z,41.41
2022-08-05T08:28:36.849Z,42.02
2022-08-05T08:31:07.631Z,41.18
2022-08-05T08:33:37.776Z,43.39
2022-08-05T08:36:37.449Z,43.17
2022-08-05T08:38:56.111Z,42.59
2022-08-05T08:41:51.873Z,41.79
2022-08-05T08:45:22.578Z,40.26
2022-08-05T08:47:48.137Z,42.10
2022-08-05T08:50:23.043Z,40.87
2022-08-05T08:52:51.772Z,40.53
2022-08-05T08:55:31.999Z,39.96
2022-08-05T08:58:12.934Z,37.94
2022-08-05T09:00:42.669Z,38.96
2022-08-05T09:03:12.469Z,39.28
2022-08-05T09:06:07.833Z,41.05
2022-08-05T09:08:32.305Z,40.19
2022-08-05T09:11:00.788Z,37.93
2022-08-05T09:13:31.861Z,40.00
2022-08-05T09:16:18.325Z,38.80
2022-08-05T09:18:48.700Z,37.76
2022-08-05T09:21:20.837Z,37.13
2022-08-05T09:24:08.815Z,37.67
2022-08-05T09:26:38.181Z,37.35
2022-08-05T09:29:11.544Z,37.72
2022-08-05T09:32:41.581Z,38.51
2022-08-05T09:34:54.999Z,35.92
2022-08-05T09:38:12.310Z,37.34
2022-08-05T09:40:30.744Z,38.41
2022-08-05T09:43:01.136Z,38.26
2022-08-05T09:46:06.439Z,36.80
2022-08-05T09:48:30.144Z,36.25
2022-08-05T09:51:01.945Z,35.42
2022-08-05T09:53:54.506Z,36.83
2022-08-05T09:56:26.181Z,36.56
2022-08-05T09:58:58.986Z,36.12
2022-08-05T10:01:31.698Z,35.34
2022-08-05T10:04:09.976Z,35.47
2022-08-05T10:06:41.459Z,35.63
2022-08-05T10:09:27.781Z,34.83
2022-08-05T10:12:18.811Z,34.77
2022-08-05T10:15:13.931Z,33.50
2022-08-05T10:17:47.531Z,33.32
2022-08-05T10:20:25.783Z,34.77
2022-08-05T10:22:55.755Z,33.81
2022-08-05T10:25:26.598Z,33.27
2022-08-05T10:28:13.489Z,33.49
2022-08-05T10:32:51.033Z,32.79
2022-08-05T10:33:35.300Z,32.00
2022-08-05T10:36:05.470Z,31.31
2022-08-05T10:38:37.085Z,31.39
2022-08-05T10:41:23.624Z,31.35
2022-08-05T10:43:56.567Z,30.76
2022-08-05T10:46:45.200Z,30.07
2022-08-05T10:49:16.422Z,33.50
2022-08-05T10:51:48.605Z,33.78
2022-08-05T10:54:56.903Z,32.89
2022-08-05T10:57:29.566Z,31.61
2022-08-05T11:00:18.539Z,30.65
2022-08-05T11:03:24.372Z,31.41
2022-08-05T11:06:08.494Z,31.92
2022-08-05T11:09:16.684Z,32.43
2022-08-05T11:11:53.452Z,31.84
2022-08-05T11:14:56.312Z,32.36
2022-08-05T11:17:57.639Z,30.60
2022-08-05T11:20:43.658Z,31.23
2022-08-05T11:23:33.198Z,31.97
2022-08-05T11:26:08.784Z,31.78
2022-08-05T11:28:47.786Z,32.42
2022-08-05T11:31:57.570Z,32.51
2022-08-05T11:34:37.538Z,33.90
2022-08-05T11:37:06.100Z,33.33
2022-08-05T11:40:00.626Z,32.19
2022-08-05T11:42:40.574Z,32.16
2022-08-05T11:45:22.982Z,31.31
2022-08-05T11:47:55.276Z,32.45
2022-08-05T11:50:23.623Z,33.54
2022-08-05T11:52:57.659Z,33.80
2022-08-05T11:55:32.040Z,33.68
2022-08-05T11:58:09.744Z,33.79
2022-08-05T12:00:44.438Z,32.35
2022-08-05T12:03:29.308Z,32.32
2022-08-05T12:06:02.727Z,31.04
2022-08-05T12:08:32.761Z,31.50
2022-08-05T12:11:06.047Z,30.87
2022-08-05T12:13:48.839Z,32.45
2022-08-05T12:16:25.383Z,31.24
2022-08-05T12:18:55.493Z,30.61
2022-08-05T12:21:26.623Z,30.41
2022-08-05T12:24:04.451Z,30.13
2022-08-05T12:26:35.493Z,30.62
2022-08-05T12:29:05.077Z,30.01
2022-08-05T12:31:42.517Z,29.81
2022-08-05T12:34:21.476Z,29.92
2022-08-05T12:36:53.260Z,29.35
2022-08-05T12:39:21.693Z,29.52
2022-08-05T12:41:51.476Z,30.08
2022-08-05T12:44:33.744Z,30.86
2022-08-05T12:47:04.112Z,31.53
2022-08-05T12:50:03.835Z,32.13
2022-08-05T12:52:39.332Z,31.24
2022-08-05T12:55:23.221Z,31.54
2022-08-05T12:58:49.211Z,29.96
2022-08-05T13:02:01.084Z,32.10
2022-08-05T13:03:42.447Z,32.58
2022-08-05T13:06:16.054Z,31.89
2022-08-05T13:08:50.704Z,32.54
2022-08-05T13:12:01.696Z,32.47
2022-08-05T13:14:20.113Z,31.53
2022-08-05T13:16:54.765Z,30.78
2022-08-05T13:19:27.803Z,30.70
2022-08-05T13:22:28.314Z,31.66
2022-08-05T13:25:00.647Z,30.72
2022-08-05T13:27:38.327Z,29.91
2022-08-05T13:30:34.014Z,29.78
2022-08-05T13:32:57.199Z,30.83
2022-08-05T13:35:47.679Z,30.86
2022-08-05T13:38:20.071Z,31.07
2022-08-05T13:41:01.592Z,32.29
2022-08-05T13:43:45.689Z,32.83
2022-08-05T13:46:30.706Z,32.62
2022-08-05T13:49:10.477Z,31.99
2022-08-05T13:51:46.559Z,31.24
2022-08-05T13:54:16.145Z,32.09
2022-08-05T13:56:51.586Z,32.80
2022-08-05T13:59:23.984Z,32.14
2022-08-05T14:01:58.313Z,33.61
2022-08-05T14:04:49.660Z,33.88
2022-08-05T14:07:26.160Z,33.92
2022-08-05T14:10:11.860Z,36.05
2022-08-05T14:12:42.850Z,36.38
2022-08-05T14:16:05.835Z,36.42
2022-08-05T14:18:01.043Z,36.72
2022-08-05T14:20:31.933Z,36.47
2022-08-05T14:23:02.014Z,37.44
2022-08-05T14:25:30.606Z,37.37
2022-08-05T14:27:58.955Z,37.67
2022-08-05T14:30:28.353Z,38.14
2022-08-05T14:32:58.774Z,38.56
2022-08-05T14:35:37.237Z,37.93
2022-08-05T14:38:32.963Z,39.72
2022-08-05T14:41:07.772Z,40.12
2022-08-05T14:44:02.697Z,40.44
2022-08-05T14:46:29.738Z,42.44
2022-08-05T14:49:06.703Z,42.95
2022-08-05T14:51:37.677Z,43.33
2022-08-05T14:54:28.440Z,42.87
2022-08-05T14:56:57.038Z,43.61
2022-08-05T14:59:25.211Z,42.76
2022-08-05T15:01:58.080Z,42.69
2022-08-05T15:04:27.390Z,43.49
2022-08-05T15:06:57.325Z,44.02
2022-08-05T15:09:53.896Z,44.84
2022-08-05T15:12:16.558Z,44.97
2022-08-05T15:14:50.083Z,46.02
2022-08-05T15:17:46.815Z,46.13
2022-08-05T15:20:17.061Z,45.82
2022-08-05T15:22:46.470Z,45.83
2022-08-05T15:25:41.023Z,46.20
2022-08-05T15:28:14.325Z,47.20
2022-08-05T15:30:43.463Z,46.47
2022-08-05T15:33:12.107Z,47.23
2022-08-05T15:35:45.534Z,47.02
2022-08-05T15:38:35.980Z,47.91
2022-08-05T15:41:20.717Z,48.26
2022-08-05T15:43:49.748Z,49.33
2022-08-05T15:46:18.118Z,49.00
2022-08-05T15:48:57.896Z,47.61
2022-08-05T15:52:12.717Z,48.29
2022-08-05T15:54:18.450Z,48.86
2022-08-05T15:56:47.780Z,48.93
2022-08-05T15:59:21.681Z,48.48
2022-08-05T16:01:52.526Z,49.66
2022-08-05T16:04:25.192Z,49.29
2022-08-05T16:06:55.553Z,49.30
2022-08-05T16:09:24.331Z,49.86
2022-08-05T16:11:54.331Z,48.81
2022-08-05T16:14:22.523Z,49.14
2022-08-05T16:16:51.257Z,48.64
2022-08-05T16:20:03.552Z,49.01
2022-08-05T16:22:10.446Z,48.93
2022-08-05T16:24:41.223Z,49.69
2022-08-05T16:27:46.934Z,49.21
2022-08-05T16:30:25.827Z,49.76
2022-08-05T16:32:55.304Z,48.93
2022-08-05T16:35:27.591Z,48.60
2022-08-05T16:38:03.656Z,48.58
2022-08-05T16:40:47.867Z,50.18
2022-08-05T16:43:26.026Z,49.43
2022-08-05T16:46:06.295Z,49.14
2022-08-05T16:48:40.657Z,49.57
2022-08-05T16:51:10.437Z,49.56
2022-08-05T16:54:02.393Z,50.15
2022-08-05T16:56:30.078Z,51.02
2022-08-05T16:59:00.914Z,51.37
2022-08-05T17:01:52.895Z,50.01
2022-08-05T17:04:26.664Z,50.32
2022-08-05T17:06:55.531Z,51.45
2022-08-05T17:09:24.812Z,51.66
2022-08-05T17:11:59.290Z,50.64
2022-08-05T17:14:37.343Z,51.61
2022-08-05T17:17:09.321Z,53.16
2022-08-05T17:19:45.664Z,52.50
2022-08-05T17:22:25.101Z,52.55
2022-08-05T17:24:56.858Z,52.26
2022-08-05T17:27:34.460Z,52.87
2022-08-05T17:30:12.069Z,53.68
2022-08-05T17:32:47.475Z,52.48
2022-08-05T17:35:20.780Z,53.63
2022-08-05T17:37:49.233Z,52.61
2022-08-05T17:40:22.532Z,53.65
2022-08-05T17:42:52.927Z,54.10
2022-08-05T17:45:25.259Z,54.28
2022-08-05T17:48:07.940Z,55.29
2022-08-05T17:50:36.268Z,55.18
2022-08-05T17:53:08.518Z,56.20
2022-08-05T17:55:40.407Z,55.44
2022-08-05T17:58:11.318Z,57.64
2022-08-05T18:00:47.028Z,57.49
2022-08-05T18:03:56.417Z,58.54
2022-08-05T18:06:11.754Z,60.96
2022-08-05T18:08:45.786Z,61.65
2022-08-05T18:11:23.976Z,61.94
2022-08-05T18:13:54.574Z,62.73
2022-08-05T18:16:24.752Z,63.46
2022-08-05T18:18:52.782Z,62.83
2022-08-05T18:21:25.848Z,63.13
2022-08-05T18:23:54.760Z,63.14
2022-08-05T18:26:27.824Z,63.70
2022-08-05T18:29:00.334Z,63.22
2022-08-05T18:31:33.761Z,63.58
2022-08-05T18:34:06.120Z,63.50
2022-08-05T18:36:39.910Z,63.25
2022-08-05T18:39:22.293Z,63.47
2022-08-05T18:42:04.789Z,64.68
2022-08-05T18:44:49.295Z,66.09
2022-08-05T18:47:26.705Z,64.75
2022-08-05T18:50:12.768Z,66.09
2022-08-05T18:52:50.734Z,65.05
2022-08-05T18:55:19.678Z,65.71
2022-08-05T18:57:52.532Z,65.59
2022-08-05T19:00:27.098Z,66.18
2022-08-05T19:03:03.663Z,65.99
2022-08-05T19:06:13.168Z,64.80
2022-08-05T19:08:21.327Z,65.30
2022-08-05T19:10:49.513Z,65.57
2022-08-05T19:13:17.362Z,65.66
2022-08-05T19:15:59.761Z,65.79
2022-08-05T19:18:32.221Z,66.06
2022-08-05T19:21:00.314Z,65.53
2022-08-05T19:24:05.484Z,64.89
2022-08-05T19:26:19.176Z,65.56
2022-08-05T19:28:46.816Z,66.32
2022-08-05T19:31:19.511Z,67.76
2022-08-05T19:33:56.506Z,66.00
2022-08-05T19:36:25.025Z,65.23
2022-08-05T19:38:54.255Z,64.74
2022-08-05T19:41:58.541Z,64.43
2022-08-05T19:44:12.692Z,64.10
2022-08-05T19:46:41.410Z,64.65
2022-08-05T19:49:17.049Z,64.97
2022-08-05T19:52:09.128Z,65.99
2022-08-05T19:54:35.012Z,65.55
2022-08-05T19:57:06.395Z,66.76
2022-08-05T19:59:55.859Z,66.25
2022-08-05T20:02:27.558Z,67.36
2022-08-05T20:04:58.353Z,68.03
2022-08-05T20:07:46.166Z,71.94
2022-08-05T20:10:15.133Z,73.09
2022-08-05T20:12:47.676Z,73.90
2022-08-05T20:15:48.783Z,73.00
2022-08-05T20:18:09.697Z,75.08
2022-08-05T20:20:44.743Z,77.32
2022-08-05T20:23:12.831Z,78.34
2022-08-05T20:25:41.256Z,75.07
2022-08-05T20:28:13.754Z,75.74
2022-08-05T20:30:44.685Z,77.92
2022-08-05T20:33:12.975Z,78.23
2022-08-05T20:35:45.475Z,76.15
2022-08-05T20:38:14.446Z,77.47
2022-08-05T20:40:50.810Z,77.62
2022-08-05T20:43:33.403Z,76.44
2022-08-05T20:46:06.835Z,79.32
2022-08-05T20:48:36.340Z,77.08
2022-08-05T20:51:07.190Z,76.20
2022-08-05T20:53:40.893Z,78.84
2022-08-05T20:56:09.859Z,76.49
2022-08-05T20:58:37.834Z,77.67
2022-08-05T21:01:05.827Z,79.16
2022-08-05T21:03:34.589Z,78.41
2022-08-05T21:06:03.068Z,80.13
2022-08-05T21:08:41.631Z,78.55
2022-08-05T21:11:11.990Z,79.02
2022-08-05T21:13:48.241Z,78.02
2022-08-05T21:16:29.679Z,78.24
2022-08-05T21:18:59.983Z,79.34
2022-08-05T21:21:43.785Z,79.53
2022-08-05T21:24:19.683Z,79.89
2022-08-05T21:26:53.679Z,79.55
2022-08-05T21:29:31.913Z,78.40
2022-08-05T21:32:01.282Z,80.34
2022-08-05T21:34:29.232Z,78.72
2022-08-05T21:36:59.834Z,78.03
2022-08-05T21:39:29.201Z,77.87
2022-08-05T21:42:01.155Z,77.20
2022-08-05T21:44:30.453Z,76.32
2022-08-05T21:46:59.130Z,74.74
2022-08-05T21:49:59.336Z,73.25
2022-08-05T21:52:22.797Z,72.19
2022-08-05T21:55:06.187Z,71.26
2022-08-05T21:57:35.334Z,71.27
2022-08-05T22:00:11.209Z,70.91
2022-08-05T22:02:42.986Z,71.34
2022-08-05T22:05:11.652Z,72.49
2022-08-05T22:07:58.136Z,72.43
2022-08-05T22:10:29.301Z,70.53
2022-08-05T22:13:58.854Z,69.30
2022-08-05T22:16:00.383Z,68.54
2022-08-05T22:18:29.998Z,68.10
2022-08-05T22:20:59.993Z,66.99
2022-08-05T22:24:02.075Z,65.93
2022-08-05T22:26:55.562Z,64.26
2022-08-05T22:29:26.369Z,64.05
2022-08-05T22:31:59.765Z,64.67
2022-08-05T22:34:31.046Z,63.23
2022-08-05T22:37:01.048Z,63.69
2022-08-05T22:39:34.444Z,63.54
2022-08-05T22:42:12.420Z,62.48
2022-08-05T22:44:56.209Z,62.25
2022-08-05T22:47:28.897Z,61.75
2022-08-05T22:50:19.482Z,61.90
2022-08-05T22:52:48.575Z,62.88
2022-08-05T22:55:19.070Z,61.48
2022-08-05T22:57:50.050Z,61.51
2022-08-05T23:00:21.091Z,61.27
2022-08-05T23:02:50.173Z,61.32
2022-08-05T23:05:19.012Z,62.31
2022-08-05T23:07:50.507Z,61.57
2022-08-05T23:10:20.022Z,62.37
2022-08-05T23:12:51.669Z,62.46
2022-08-05T23:15:26.902Z,62.48
2022-08-05T23:18:00.785Z,63.24
2022-08-05T23:20:31.278Z,63.76
2022-08-05T23:23:00.262Z,63.66
2022-08-05T23:25:51.905Z,64.16
2022-08-05T23:28:21.223Z,63.77
2022-08-05T23:30:53.124Z,64.01
2022-08-05T23:34:02.721Z,63.74
2022-08-05T23:36:11.073Z,64.09
2022-08-05T23:38:42.636Z,63.95
2022-08-05T23:41:11.095Z,64.02
2022-08-05T23:44:05.999Z,63.46
2022-08-05T23:46:28.959Z,63.52
2022-08-05T23:49:00.412Z,63.76
2022-08-05T23:51:53.893Z,63.59
2022-08-05T23:54:25.526Z,63.28
2022-08-05T23:56:55.276Z,63.01
2022-08-05T23:59:37.378Z,63.56
